Flag for USA

Past Weather in 27°56'57"N, 82°27'22"W, USA — Yesterday and Last 2 Weeks

Currently: 64 °F. Mostly cloudy. (Weather station: Tampa, Peter O Knight Airport, USA). See more current weather

Past Weather in 27°56'57"N, 82°27'22"W — Graph

°F

27°56'57"N, 82°27'22"W Temperature Yesterday

Maximum temperature yesterday: 77 °F (at 2:55 pm)
Minimum temperature yesterday: 64 °F (at 3:35 am)
Average temperature yesterday: 70 °F

High & Low Weather Summary for the Past Weeks

 TemperatureHumidityPressure
High79 °F (Jan 24, 1:55 pm)100% (Jan 15, 1:35 am)30.39 "Hg (Jan 15, 1:35 am)
Low45 °F (Jan 19, 3:55 am)29% (Jan 19, 3:35 pm)29.80 "Hg (Jan 15, 4:35 pm)
Average62 °F75%30.09 "Hg
* Reported Jan 13 3:15 am — Jan 28 3:35 am, 27°56'57"N, 82°27'22"W. Weather by CustomWeather, © 2021

Note: Actual official high and low records may vary slightly from our data, if they occured in-between our weather recording intervals... More about our weather records

27°56'57"N, 82°27'22"W Weather History for the Previous 24 Hours

Scroll right to see more
 ConditionsComfort  
Time TempWeatherWind HumidityBarometerVisibility
3:35 am
Thu, Jan 28
64 °FOvercast.7 mph83%30.11 "Hg10 mi
2:35 am66 °FPassing clouds.8 mph83%30.10 "Hg10 mi
2:15 am66 °FMostly cloudy.6 mph88%30.10 "Hg10 mi
1:55 am68 °FMostly cloudy.7 mph88%30.10 "Hg10 mi
1:35 am68 °FLow clouds.6 mph88%30.10 "Hg7 mi
1:15 am70 °FFog.5 mph88%30.09 "Hg5 mi
12:55 am70 °FLow clouds.8 mph94%30.09 "Hg7 mi
12:35 am70 °FLow clouds.5 mph94%30.09 "Hg7 mi
12:15 am70 °FLow clouds.5 mph94%30.09 "Hg7 mi
11:55 pm
Wed, Jan 27
70 °FLow clouds.3 mph94%30.09 "Hg7 mi
11:35 pm68 °FLow clouds.No wind94%30.09 "Hg7 mi
11:15 pm68 °FPartly cloudy.No wind94%30.09 "Hg10 mi
10:55 pm68 °FPassing clouds.No wind94%30.09 "Hg10 mi
10:35 pm70 °FPassing clouds.No wind88%30.08 "Hg10 mi
10:15 pm70 °FOvercast.3 mph88%30.08 "Hg10 mi
9:55 pm70 °FOvercast.3 mph94%30.07 "Hg10 mi
9:35 pm66 °FRain. Mostly cloudy.No wind94%30.05 "Hg1 mi
8:55 pm70 °FDrizzle. Mostly cloudy.6 mph94%30.06 "Hg10 mi
8:35 pm72 °FLight rain. Mostly cloudy.6 mph94%30.07 "Hg7 mi
7:55 pm70 °FRain. Low clouds.12 mph94%30.04 "Hg3 mi
7:15 pm70 °FFog.9 mph94%30.04 "Hg5 mi
6:55 pm70 °FRain. Mostly cloudy.12 mph94%30.04 "Hg1 mi
6:35 pm70 °FFog.9 mph94%30.04 "Hg5 mi
6:15 pm70 °FOvercast.7 mph94%30.04 "Hg7 mi
5:55 pm72 °FCloudy.9 mph88%30.04 "Hg10 mi
5:35 pm72 °FCloudy.9 mph88%30.03 "Hg10 mi
5:15 pm72 °FMostly cloudy.7 mph88%30.04 "Hg10 mi
4:55 pm73 °FPartly sunny.10 mph83%30.03 "Hg10 mi
4:35 pm73 °FScattered clouds.10 mph83%30.02 "Hg10 mi
4:15 pm77 °FScattered clouds.10 mph74%30.02 "Hg10 mi
3:55 pm75 °FScattered clouds.10 mph74%30.02 "Hg10 mi
3:35 pm75 °FScattered clouds.12 mph78%30.02 "Hg10 mi
3:15 pm77 °FScattered clouds.14 mph74%30.02 "Hg10 mi
2:55 pm77 °FScattered clouds.12 mph69%30.04 "Hg10 mi
2:15 pm73 °FScattered clouds.12 mph78%30.05 "Hg10 mi
1:55 pm73 °FScattered clouds.12 mph78%30.05 "Hg10 mi
1:35 pm73 °FBroken clouds.10 mph83%30.06 "Hg10 mi
1:15 pm73 °FPartly sunny.9 mph78%30.06 "Hg10 mi
12:55 pm73 °FPartly sunny.8 mph83%30.08 "Hg10 mi
12:35 pm73 °FScattered clouds.8 mph83%30.09 "Hg10 mi
12:15 pm73 °FScattered clouds.8 mph83%30.10 "Hg10 mi
11:55 am72 °FCloudy.6 mph83%30.11 "Hg10 mi
11:35 am72 °FMostly cloudy.7 mph83%30.11 "Hg10 mi
11:15 am72 °FLow clouds.6 mph88%30.11 "Hg10 mi
10:55 am72 °FLow clouds.8 mph88%30.10 "Hg10 mi
10:35 am72 °FLow clouds.9 mph88%30.10 "Hg10 mi
10:15 am70 °FLow clouds.3 mph94%30.10 "Hg10 mi
9:55 am70 °FLow clouds.6 mph94%30.10 "Hg10 mi
9:35 am70 °FLow clouds.8 mph94%30.09 "Hg10 mi
9:15 am70 °FLow clouds.7 mph94%30.08 "Hg10 mi
8:55 am68 °FLow clouds.7 mph94%30.07 "Hg7 mi
8:35 am68 °FLow clouds.8 mph94%30.06 "Hg7 mi
8:15 am68 °FLow clouds.7 mph94%30.07 "Hg7 mi
7:55 am68 °FFog.8 mph94%30.06 "Hg3 mi
7:35 am68 °FFog.12 mph94%30.06 "Hg1 mi
6:55 am66 °FFog.10 mph94%30.04 "Hg1 mi
6:35 am66 °FFog.9 mph94%30.03 "Hg1 mi
5:55 am66 °FLight rain. Mostly cloudy.9 mph94%30.02 "Hg1 mi
5:35 am66 °FFog.8 mph94%30.01 "Hg3 mi
4:55 am66 °FFog.6 mph94%30.01 "Hg5 mi
4:35 am66 °FFog.6 mph94%30.01 "Hg1 mi
Weather by CustomWeather, © 2021

See weather overview